Time;durP1;ratioP1;P1;durP2;ratioP2;P2;SDS_P1;SDS_P2;PMS_P1;PMS_P2;Temp;Humidity;BMP_temperature;BMP_pressure;BME280_temperature;BME280_humidity;BME280_pressure;Samples;Min_cycle;Max_cycle;Signal;HPM_P1;HPM_P2
2023/01/02 00:02:09;;;;;;;0.20;0.20;;;9.90;99.90;;;;;;5096937;28;20449;-84
2023/01/02 00:04:34;;;;;;;0.50;0.50;;;10.00;99.90;;;;;;5096925;28;20132;-85
2023/01/02 00:07:00;;;;;;;0.35;0.35;;;10.00;99.90;;;;;;5096636;28;20123;-84
2023/01/02 00:09:26;;;;;;;0.20;0.20;;;10.00;99.90;;;;;;5096696;28;20032;-84
2023/01/02 00:11:51;;;;;;;0.13;0.13;;;10.00;99.90;;;;;;5096441;28;20078;-84
2023/01/02 00:14:17;;;;;;;2.47;1.15;;;10.00;99.90;;;;;;5096568;28;20083;-84
2023/01/02 00:16:42;;;;;;;1.80;1.25;;;10.10;99.90;;;;;;5095599;28;20044;-84
2023/01/02 00:19:08;;;;;;;0.03;0.03;;;10.10;99.90;;;;;;5096864;28;20040;-84
2023/01/02 00:21:33;;;;;;;0.47;0.47;;;10.20;99.90;;;;;;5096409;28;20036;-85
2023/01/02 00:23:59;;;;;;;0.28;0.25;;;10.10;99.90;;;;;;5096501;28;20044;-84
2023/01/02 00:26:25;;;;;;;0.43;0.32;;;10.10;99.90;;;;;;5096182;28;20040;-84
2023/01/02 00:28:50;;;;;;;0.17;0.10;;;10.20;99.90;;;;;;5096318;28;20058;-84
2023/01/02 00:31:16;;;;;;;0.45;0.45;;;10.20;99.90;;;;;;5096349;28;20043;-84
2023/01/02 00:33:42;;;;;;;0.55;0.55;;;10.20;99.90;;;;;;5096467;28;20051;-84
2023/01/02 00:36:10;;;;;;;0.55;0.55;;;10.20;99.90;;;;;;5095823;28;20411;-85
2023/01/02 00:38:36;;;;;;;0.20;0.20;;;10.20;99.90;;;;;;5096291;28;20113;-84
2023/01/02 00:41:02;;;;;;;0.45;0.45;;;10.20;99.90;;;;;;5096026;28;20495;-84
2023/01/02 00:43:28;;;;;;;0.50;0.40;;;10.20;99.90;;;;;;5095178;28;20040;-85
2023/01/02 00:45:54;;;;;;;0.30;0.25;;;10.20;99.90;;;;;;5096369;28;20487;-85
2023/01/02 00:48:19;;;;;;;0.15;0.15;;;10.20;99.90;;;;;;5095749;28;20040;-84
2023/01/02 00:50:45;;;;;;;1.85;0.17;;;10.20;99.90;;;;;;5096075;28;20048;-84
2023/01/02 00:53:11;;;;;;;0.30;0.30;;;10.20;99.90;;;;;;5095505;28;20079;-84
2023/01/02 00:55:36;;;;;;;0.47;0.40;;;11.00;99.90;;;;;;5096032;28;20127;-84
2023/01/02 00:58:02;;;;;;;1.27;0.88;;;10.30;99.90;;;;;;5095467;28;20372;-85
2023/01/02 01:00:27;;;;;;;0.38;0.38;;;10.30;99.90;;;;;;5095711;28;20052;-85
2023/01/02 01:02:57;;;;;;;0.10;0.10;;;10.30;99.90;;;;;;5095184;28;20052;-85
2023/01/02 01:05:24;;;;;;;0.65;0.43;;;10.30;99.90;;;;;;5095849;28;20119;-85
2023/01/02 01:07:49;;;;;;;0.10;0.10;;;10.30;99.90;;;;;;5095458;28;20161;-85
2023/01/02 01:10:15;;;;;;;3.20;0.35;;;10.40;99.90;;;;;;5095798;28;20074;-86
2023/01/02 01:12:41;;;;;;;3.45;1.85;;;10.40;99.90;;;;;;5095442;28;20054;-85
2023/01/02 01:15:07;;;;;;;2.38;1.85;;;10.40;99.90;;;;;;5096658;28;20036;-85
2023/01/02 01:17:32;;;;;;;1.17;0.55;;;10.40;99.90;;;;;;5095431;28;20050;-85
2023/01/02 01:19:58;;;;;;;1.42;1.15;;;10.40;99.90;;;;;;5095469;28;20071;-85
2023/01/02 01:22:23;;;;;;;1.88;1.55;;;10.40;99.90;;;;;;5095230;28;20039;-85
2023/01/02 01:24:49;;;;;;;2.17;0.73;;;10.50;99.90;;;;;;5095074;28;20036;-86
2023/01/02 01:27:15;;;;;;;1.70;1.48;;;10.40;99.90;;;;;;5095513;28;20040;-86
2023/01/02 01:29:40;;;;;;;1.13;1.02;;;10.40;99.90;;;;;;5095121;28;20041;-86
2023/01/02 01:32:06;;;;;;;0.52;0.52;;;10.40;99.90;;;;;;5094937;28;20048;-86
2023/01/02 01:34:32;;;;;;;0.22;0.22;;;10.50;99.90;;;;;;5093853;28;20410;-86
2023/01/02 01:36:57;;;;;;;3.17;0.52;;;10.50;99.90;;;;;;5094776;28;20372;-86
2023/01/02 01:39:23;;;;;;;1.45;1.00;;;10.50;99.90;;;;;;5094725;28;20050;-86
2023/01/02 01:41:48;;;;;;;3.38;1.60;;;10.50;99.90;;;;;;5094698;28;20047;-86
2023/01/02 01:44:40;;;;;;;1.30;0.77;;;10.90;99.90;;;;;;5094862;28;20409;-86
2023/01/02 01:47:22;;;;;;;2.72;1.42;;;10.60;99.90;;;;;;5094359;28;20051;-86
2023/01/02 01:49:51;;;;;;;0.40;0.40;;;10.60;99.90;;;;;;5094312;28;20101;-86
2023/01/02 01:52:22;;;;;;;1.42;1.10;;;10.60;99.90;;;;;;5082904;28;20058;-86
2023/01/02 01:54:59;;;;;;;3.30;1.70;;;10.60;99.90;;;;;;5095056;28;20042;-86
2023/01/02 01:57:56;;;;;;;3.53;1.80;;;10.70;99.90;;;;;;5094768;28;20044;-87
2023/01/02 02:00:21;;;;;;;1.07;0.83;;;10.60;99.90;;;;;;5091175;28;20085;-86
2023/01/02 02:02:50;;;;;;;0.20;0.20;;;10.70;99.90;;;;;;5094581;28;20047;-86
2023/01/02 02:05:20;;;;;;;1.27;1.15;;;10.70;99.90;;;;;;5094671;28;20044;-86
2023/01/02 02:08:03;;;;;;;0.85;0.55;;;10.70;99.90;;;;;;5094574;28;20044;-84
2023/01/02 02:10:29;;;;;;;0.57;0.57;;;10.70;99.90;;;;;;5094519;28;20526;-85
2023/01/02 02:12:55;;;;;;;0.38;0.38;;;11.50;99.90;;;;;;5094602;28;20040;-84
2023/01/02 02:15:29;;;;;;;4.55;0.73;;;10.70;99.90;;;;;;5094447;28;20119;-84
2023/01/02 02:18:37;;;;;;;1.40;0.90;;;10.60;99.90;;;;;;5094687;28;20071;-84
2023/01/02 02:21:22;;;;;;;1.27;0.65;;;10.70;99.90;;;;;;5089172;28;20470;-84
2023/01/02 02:24:01;;;;;;;1.33;1.10;;;10.70;99.90;;;;;;5094141;28;20495;-84
2023/01/02 02:26:30;;;;;;;0.85;0.85;;;10.70;99.90;;;;;;5094572;28;20044;-85
2023/01/02 02:29:10;;;;;;;0.43;0.40;;;10.80;99.90;;;;;;5093047;28;20055;-84
2023/01/02 02:31:45;;;;;;;1.10;1.00;;;10.70;99.90;;;;;;5093322;28;20052;-86
2023/01/02 02:34:38;;;;;;;5.50;1.05;;;10.80;99.90;;;;;;5075529;28;20044;-87
2023/01/02 02:37:15;;;;;;;0.20;0.20;;;10.80;99.90;;;;;;5074495;28;20048;-86
2023/01/02 02:39:49;;;;;;;2.38;1.70;;;10.70;99.90;;;;;;5091270;28;20054;-87
2023/01/02 02:42:44;;;;;;;1.85;0.80;;;10.80;99.90;;;;;;5094483;28;20446;-87
2023/01/02 02:45:27;;;;;;;1.02;0.50;;;10.80;99.90;;;;;;5094553;28;20364;-86
2023/01/02 02:48:06;;;;;;;0.47;0.47;;;10.80;99.90;;;;;;5094044;28;20127;-86
2023/01/02 02:50:47;;;;;;;0.90;0.73;;;10.80;99.90;;;;;;5094324;28;20123;-87
2023/01/02 02:53:24;;;;;;;25.80;1.25;;;10.80;99.90;;;;;;5094331;28;20529;-86
2023/01/02 02:55:56;;;;;;;1.05;0.95;;;10.80;99.90;;;;;;5094713;28;20399;-87
2023/01/02 02:58:24;;;;;;;0.88;0.88;;;10.80;99.90;;;;;;5094574;28;20044;-88
2023/01/02 03:00:49;;;;;;;0.68;0.65;;;10.80;99.90;;;;;;5097720;28;20040;-87
2023/01/02 03:03:22;;;;;;;0.60;0.55;;;10.80;99.90;;;;;;5097745;28;20582;-87
2023/01/02 03:06:11;;;;;;;0.55;0.55;;;10.80;99.90;;;;;;5086475;28;20131;-87
2023/01/02 03:09:10;;;;;;;1.85;1.08;;;10.90;99.90;;;;;;5080904;28;20075;-86
2023/01/02 03:11:59;;;;;;;0.82;0.77;;;10.80;99.90;;;;;;5098222;28;20047;-87
2023/01/02 03:14:57;;;;;;;0.28;0.25;;;10.80;99.90;;;;;;5097759;28;20040;-86
2023/01/02 03:17:34;;;;;;;0.40;0.32;;;10.80;99.90;;;;;;5097569;28;20499;-86
2023/01/02 03:20:07;;;;;;;2.08;0.80;;;10.80;99.90;;;;;;5077775;28;20364;-86
2023/01/02 03:22:38;;;;;;;5.28;1.60;;;10.80;99.90;;;;;;5077061;28;20516;-86
2023/01/02 03:25:05;;;;;;;1.90;1.75;;;10.90;99.90;;;;;;5076231;28;20039;-86
2023/01/02 03:27:34;;;;;;;0.32;0.25;;;10.90;99.90;;;;;;5075915;28;20051;-86
2023/01/02 03:30:06;;;;;;;0.82;0.82;;;10.90;99.90;;;;;;5094513;28;20380;-87
2023/01/02 03:32:37;;;;;;;0.70;0.60;;;10.90;99.90;;;;;;5096051;28;20044;-87
2023/01/02 03:35:07;;;;;;;2.03;1.48;;;10.90;99.90;;;;;;5097370;28;20047;-86
2023/01/02 03:37:36;;;;;;;5.82;1.60;;;10.90;99.90;;;;;;5097305;28;20059;-86
2023/01/02 03:40:07;;;;;;;0.77;0.75;;;10.90;99.90;;;;;;5078269;28;20072;-86
2023/01/02 03:42:42;;;;;;;0.40;0.40;;;10.90;99.90;;;;;;5077205;28;20049;-86
2023/01/02 03:45:33;;;;;;;1.95;0.73;;;10.90;99.90;;;;;;5094681;28;20066;-86
2023/01/02 03:48:06;;;;;;;0.85;0.73;;;10.90;99.90;;;;;;5096633;28;20060;-86
2023/01/02 03:50:39;;;;;;;0.60;0.45;;;11.00;99.90;;;;;;5097136;28;20391;-88
2023/01/02 03:53:05;;;;;;;1.67;1.55;;;10.90;99.90;;;;;;5097143;28;20051;-87
2023/01/02 03:55:34;;;;;;;4.20;1.48;;;10.90;99.90;;;;;;5097018;28;20068;-86
2023/01/02 03:58:13;;;;;;;1.75;1.52;;;10.90;99.90;;;;;;5096784;28;20048;-87
2023/01/02 04:01:04;;;;;;;1.67;0.85;;;11.00;99.90;;;;;;5095898;28;20399;-87
2023/01/02 04:03:48;;;;;;;0.75;0.65;;;11.00;99.90;;;;;;5095597;28;20404;-86
2023/01/02 04:06:18;;;;;;;1.27;0.75;;;11.00;99.90;;;;;;5096894;28;20048;-87
2023/01/02 04:08:54;;;;;;;1.23;0.95;;;11.00;99.90;;;;;;5096933;28;20043;-86
2023/01/02 04:11:21;;;;;;;0.10;0.10;;;11.10;99.90;;;;;;5096197;28;20441;-87
2023/01/02 04:13:58;;;;;;;2.38;1.30;;;11.00;99.90;;;;;;5095503;28;20051;-86
2023/01/02 04:16:28;;;;;;;0.65;0.63;;;11.80;99.90;;;;;;5096743;28;20093;-86
2023/01/02 04:19:01;;;;;;;1.08;0.98;;;11.10;99.90;;;;;;5112233;28;20056;-86
2023/01/02 04:21:30;;;;;;;1.30;0.80;;;11.00;99.90;;;;;;5095432;28;20051;-86
2023/01/02 04:24:11;;;;;;;0.10;0.10;;;11.00;99.90;;;;;;5096530;28;20036;-87
2023/01/02 04:26:46;;;;;;;0.65;0.65;;;11.10;99.90;;;;;;5096279;28;20076;-86
2023/01/02 04:29:12;;;;;;;0.23;0.20;;;11.10;99.90;;;;;;5096422;28;20048;-86
2023/01/02 04:31:57;;;;;;;0.38;0.38;;;11.00;99.90;;;;;;5096141;28;20047;-86
2023/01/02 04:34:26;;;;;;;0.10;0.10;;;11.00;99.90;;;;;;5094961;28;20487;-85
2023/01/02 04:36:52;;;;;;;1.38;1.20;;;11.00;99.90;;;;;;5095981;28;20052;-85
2023/01/02 04:39:20;;;;;;;0.38;0.22;;;11.00;99.90;;;;;;5094837;28;20039;-84
2023/01/02 04:41:46;;;;;;;0.20;0.20;;;11.00;99.90;;;;;;5096724;28;20499;-87
2023/01/02 04:44:11;;;;;;;0.30;0.30;;;12.30;99.90;;;;;;5101836;28;20032;-84
2023/01/02 04:46:37;;;;;;;0.93;0.85;;;11.00;99.90;;;;;;5102545;28;20049;-84
2023/01/02 04:49:02;;;;;;;0.25;0.25;;;11.10;99.90;;;;;;5095965;28;20041;-84
2023/01/02 04:51:28;;;;;;;3.97;1.38;;;11.10;99.90;;;;;;5096629;28;20052;-84
2023/01/02 04:53:54;;;;;;;0.45;0.10;;;11.10;99.90;;;;;;5096055;28;20044;-84
2023/01/02 04:56:20;;;;;;;0.70;0.70;;;11.10;99.90;;;;;;5094740;28;20510;-84
2023/01/02 04:58:46;;;;;;;0.43;0.43;;;11.10;99.90;;;;;;5095885;28;20510;-84
2023/01/02 05:01:14;;;;;;;0.95;0.60;;;11.00;99.90;;;;;;5096061;28;20096;-84
2023/01/02 05:03:46;;;;;;;0.40;0.32;;;11.10;99.90;;;;;;5094381;28;20051;-84
2023/01/02 05:06:12;;;;;;;0.20;0.20;;;11.10;99.90;;;;;;5095930;28;20411;-85
2023/01/02 05:08:38;;;;;;;0.20;0.17;;;11.10;99.90;;;;;;5095489;28;20169;-84
2023/01/02 05:11:08;;;;;;;2.30;1.15;;;11.10;99.90;;;;;;5095837;28;20063;-84
2023/01/02 05:13:34;;;;;;;0.73;0.73;;;11.20;99.90;;;;;;5095561;28;20044;-85
2023/01/02 05:16:00;;;;;;;0.85;0.65;;;11.10;99.90;;;;;;5095767;28;20479;-85
2023/01/02 05:18:30;;;;;;;1.40;1.13;;;11.20;99.90;;;;;;5077097;28;20040;-85
2023/01/02 05:24:00;;;;;;;6.40;0.88;;;11.20;99.90;;;;;;5094128;28;20075;-84
2023/01/02 05:26:26;;;;;;;0.13;0.13;;;11.30;99.90;;;;;;5095342;28;20376;-84
2023/01/02 05:28:52;;;;;;;0.65;0.43;;;11.30;99.90;;;;;;5095110;28;20051;-84
2023/01/02 05:31:18;;;;;;;0.50;0.50;;;11.30;99.90;;;;;;5094898;28;20044;-84
2023/01/02 05:33:44;;;;;;;7.03;1.88;;;12.40;99.90;;;;;;5093963;28;20048;-84
2023/01/02 05:36:09;;;;;;;0.47;0.32;;;12.40;99.90;;;;;;5093997;28;20066;-84
2023/01/02 05:38:36;;;;;;;0.52;0.47;;;11.30;99.90;;;;;;5095696;28;20040;-84
2023/01/02 05:41:03;;;;;;;1.88;1.20;;;11.30;99.90;;;;;;5096026;28;20048;-84
2023/01/02 05:43:34;;;;;;;2.17;1.65;;;11.30;99.90;;;;;;5095262;28;20115;-84
2023/01/02 05:46:10;;;;;;;1.80;1.17;;;11.30;99.90;;;;;;5094868;28;20433;-84
2023/01/02 05:48:36;;;;;;;4.85;1.02;;;11.30;99.90;;;;;;5094556;28;20063;-84
2023/01/02 05:51:07;;;;;;;2.50;1.50;;;11.30;99.90;;;;;;5094676;28;20047;-84
2023/01/02 05:53:32;;;;;;;1.02;0.93;;;11.30;99.90;;;;;;5092369;28;20080;-84
2023/01/02 05:56:13;;;;;;;1.60;0.80;;;11.30;99.90;;;;;;5092259;28;20114;-84
2023/01/02 05:58:40;;;;;;;11.07;2.85;;;11.30;99.90;;;;;;5093083;28;20087;-84
2023/01/02 06:01:10;;;;;;;0.55;0.47;;;11.40;99.90;;;;;;5092046;28;20044;-84
2023/01/02 06:03:36;;;;;;;1.13;0.93;;;11.40;99.90;;;;;;5093144;28;20039;-85
2023/01/02 06:06:04;;;;;;;2.55;1.20;;;11.40;99.90;;;;;;5092879;28;20135;-85
2023/01/02 06:08:29;;;;;;;3.45;1.95;;;11.40;99.90;;;;;;5092711;28;20040;-85
2023/01/02 06:10:55;;;;;;;0.57;0.52;;;11.40;99.90;;;;;;5091892;28;20051;-85
2023/01/02 06:13:21;;;;;;;0.80;0.52;;;11.40;99.90;;;;;;5092891;28;20048;-84
2023/01/02 06:15:46;;;;;;;0.43;0.30;;;11.40;99.90;;;;;;5092847;28;20496;-84
2023/01/02 06:18:12;;;;;;;0.47;0.35;;;11.40;99.90;;;;;;5091515;28;20101;-84
2023/01/02 06:20:37;;;;;;;0.52;0.52;;;11.40;99.90;;;;;;5092909;28;20044;-84
2023/01/02 06:23:03;;;;;;;4.22;0.90;;;11.40;99.90;;;;;;5092626;28;20092;-84
2023/01/02 06:25:28;;;;;;;0.75;0.65;;;11.40;99.90;;;;;;5092440;28;20044;-84
2023/01/02 06:27:54;;;;;;;0.77;0.57;;;11.40;99.90;;;;;;5092531;28;20408;-84
2023/01/02 06:30:19;;;;;;;0.68;0.52;;;12.10;99.90;;;;;;5092822;28;20067;-84
2023/01/02 06:32:45;;;;;;;1.25;1.15;;;11.40;99.90;;;;;;5092536;28;20040;-85
2023/01/02 06:35:10;;;;;;;0.55;0.13;;;11.40;99.90;;;;;;5093848;28;20081;-85
2023/01/02 06:37:42;;;;;;;0.52;0.47;;;11.40;99.90;;;;;;5094995;28;20517;-85
2023/01/02 06:40:08;;;;;;;0.25;0.22;;;11.50;99.90;;;;;;5095398;28;20380;-85
2023/01/02 06:42:34;;;;;;;0.70;0.57;;;11.50;99.90;;;;;;5097011;28;20161;-85
2023/01/02 06:44:59;;;;;;;1.35;0.47;;;12.70;99.90;;;;;;5096562;28;20048;-85
2023/01/02 06:47:25;;;;;;;1.25;1.05;;;11.50;99.90;;;;;;5095829;28;20060;-85
2023/01/02 06:49:50;;;;;;;0.55;0.55;;;11.40;99.90;;;;;;5095196;28;20087;-85
2023/01/02 06:52:16;;;;;;;0.57;0.57;;;11.40;99.90;;;;;;5096333;28;20560;-85
2023/01/02 06:54:42;;;;;;;0.32;0.30;;;11.40;99.90;;;;;;5095115;28;20051;-85
2023/01/02 06:57:07;;;;;;;1.80;0.60;;;11.40;99.90;;;;;;5096306;28;20410;-85
2023/01/02 06:59:33;;;;;;;0.63;0.47;;;11.40;99.90;;;;;;5095047;28;20055;-85
2023/01/02 07:01:58;;;;;;;1.10;0.50;;;11.40;99.90;;;;;;5096698;28;20076;-87
2023/01/02 07:04:24;;;;;;;0.63;0.43;;;11.40;99.90;;;;;;5095259;28;20495;-86
2023/01/02 07:06:49;;;;;;;0.25;0.17;;;11.40;99.90;;;;;;5095717;28;20110;-85
2023/01/02 07:09:15;;;;;;;0.47;0.43;;;11.30;99.90;;;;;;5096218;28;20040;-85
2023/01/02 07:11:41;;;;;;;0.05;0.05;;;11.30;99.90;;;;;;5094796;28;20136;-85
2023/01/02 07:14:06;;;;;;;1.15;0.93;;;11.30;99.90;;;;;;5096498;28;20145;-85
2023/01/02 07:16:32;;;;;;;0.15;0.10;;;11.30;99.90;;;;;;5095240;28;20529;-85
2023/01/02 07:18:57;;;;;;;0.00;0.00;;;11.20;99.90;;;;;;5095579;28;20394;-85
2023/01/02 07:21:23;;;;;;;0.20;0.20;;;11.30;99.90;;;;;;5096117;28;20040;-85
2023/01/02 07:23:48;;;;;;;0.10;0.10;;;11.10;99.90;;;;;;5095874;28;20119;-85
2023/01/02 07:26:14;;;;;;;0.22;0.22;;;11.90;99.90;;;;;;5095996;28;20429;-85
2023/01/02 07:28:40;;;;;;;0.08;0.08;;;10.90;99.90;;;;;;5094363;28;20044;-85
2023/01/02 07:31:10;;;;;;;0.15;0.13;;;10.80;99.90;;;;;;5095816;28;20083;-85
2023/01/02 07:33:35;;;;;;;0.10;0.10;;;10.80;99.90;;;;;;5095439;28;20052;-86
2023/01/02 07:36:04;;;;;;;0.00;0.00;;;10.70;99.90;;;;;;5094334;28;20055;-85
2023/01/02 07:38:30;;;;;;;0.47;0.40;;;10.70;99.90;;;;;;5095223;28;20105;-85
2023/01/02 07:40:56;;;;;;;0.00;0.00;;;10.60;99.90;;;;;;5095522;28;20479;-85
2023/01/02 07:43:22;;;;;;;0.00;0.00;;;10.60;99.90;;;;;;5094077;28;20074;-85
2023/01/02 07:45:48;;;;;;;0.20;0.20;;;10.50;99.90;;;;;;5093155;28;20044;-85
2023/01/02 07:48:13;;;;;;;1.23;0.43;;;10.40;99.90;;;;;;5094872;28;20083;-85
2023/01/02 07:50:39;;;;;;;0.20;0.08;;;10.30;99.90;;;;;;5094287;28;20094;-85
2023/01/02 07:53:05;;;;;;;0.47;0.47;;;10.20;99.90;;;;;;5093957;28;20059;-85
2023/01/02 07:55:31;;;;;;;1.40;1.17;;;10.00;99.90;;;;;;5095573;28;20044;-85
2023/01/02 07:57:57;;;;;;;0.10;0.10;;;9.90;99.90;;;;;;5093652;28;20051;-85
2023/01/02 08:00:22;;;;;;;0.98;0.32;;;9.80;99.90;;;;;;5095333;28;20044;-85
2023/01/02 08:02:48;;;;;;;0.10;0.10;;;9.70;99.90;;;;;;5093095;28;20047;-85
2023/01/02 08:05:15;;;;;;;0.10;0.03;;;9.50;99.90;;;;;;5093024;28;20043;-85
2023/01/02 08:07:42;;;;;;;0.70;0.55;;;10.60;99.90;;;;;;5091815;28;20074;-85
2023/01/02 08:10:07;;;;;;;1.95;1.15;;;9.30;99.90;;;;;;5092948;28;20055;-86
2023/01/02 08:12:33;;;;;;;0.00;0.00;;;9.10;99.90;;;;;;5093196;28;20044;-86
2023/01/02 08:14:58;;;;;;;0.00;0.00;;;10.10;99.90;;;;;;5092634;28;20130;-86
2023/01/02 08:17:24;;;;;;;0.30;0.30;;;8.80;99.90;;;;;;5091270;28;20047;-86
2023/01/02 08:19:50;;;;;;;0.00;0.00;;;8.70;99.90;;;;;;5093261;28;20042;-86
2023/01/02 08:22:15;;;;;;;0.00;0.00;;;8.60;99.90;;;;;;5092710;28;20048;-86
2023/01/02 08:24:41;;;;;;;0.00;0.00;;;8.50;99.90;;;;;;5077415;28;20046;-86
2023/01/02 08:27:06;;;;;;;0.00;0.00;;;9.40;99.90;;;;;;5070917;28;20098;-86
2023/01/02 08:29:32;;;;;;;0.00;0.00;;;8.40;99.90;;;;;;5071063;28;20381;-86
2023/01/02 08:31:58;;;;;;;0.00;0.00;;;8.40;99.90;;;;;;5071977;28;20043;-86
2023/01/02 08:34:24;;;;;;;0.00;0.00;;;8.40;99.90;;;;;;5071438;28;20052;-86
2023/01/02 08:36:51;;;;;;;0.00;0.00;;;8.30;99.90;;;;;;5074961;28;20041;-86
2023/01/02 08:39:16;;;;;;;0.00;0.00;;;8.30;99.90;;;;;;5091100;28;20056;-86
2023/01/02 08:41:42;;;;;;;0.00;0.00;;;8.30;99.90;;;;;;5092510;28;20101;-86
2023/01/02 08:44:07;;;;;;;0.00;0.00;;;8.30;99.90;;;;;;5090804;28;20383;-86
2023/01/02 08:46:34;;;;;;;0.00;0.00;;;8.30;99.90;;;;;;5090921;28;20083;-86
2023/01/02 08:49:00;;;;;;;0.00;0.00;;;8.30;99.90;;;;;;5091342;28;20449;-86
2023/01/02 08:51:27;;;;;;;0.45;0.25;;;8.30;99.90;;;;;;5090792;28;20048;-86
2023/01/02 08:53:53;;;;;;;0.00;0.00;;;8.30;99.90;;;;;;5092190;28;20068;-86
2023/01/02 08:56:27;;;;;;;0.00;0.00;;;8.30;99.90;;;;;;5092617;28;20441;-86
2023/01/02 08:58:55;;;;;;;0.10;0.05;;;8.30;99.90;;;;;;5091443;28;20040;-86
2023/01/02 09:01:22;;;;;;;0.00;0.00;;;8.30;99.90;;;;;;5091404;28;20040;-86
2023/01/02 09:03:49;;;;;;;0.08;0.08;;;8.30;99.90;;;;;;5090924;28;20123;-86
2023/01/02 09:06:15;;;;;;;0.03;0.03;;;8.30;99.90;;;;;;5091035;28;20613;-86
2023/01/02 09:08:40;;;;;;;0.00;0.00;;;8.30;99.90;;;;;;5079490;28;20127;-86
2023/01/02 09:11:17;;;;;;;0.00;0.00;;;8.30;99.90;;;;;;5090829;28;20040;-86
2023/01/02 09:13:44;;;;;;;0.00;0.00;;;8.30;99.90;;;;;;5090816;28;20586;-86
2023/01/02 09:16:10;;;;;;;0.00;0.00;;;8.30;99.90;;;;;;5090566;28;20051;-86
2023/01/02 09:18:38;;;;;;;0.00;0.00;;;8.20;99.90;;;;;;5091179;28;20490;-85
2023/01/02 09:21:04;;;;;;;0.00;0.00;;;8.20;99.90;;;;;;5091962;28;20506;-86
2023/01/02 09:23:30;;;;;;;0.00;0.00;;;8.20;99.90;;;;;;5090102;28;20048;-86
2023/01/02 09:25:58;;;;;;;0.00;0.00;;;8.40;99.90;;;;;;5090549;28;20076;-86
2023/01/02 09:28:24;;;;;;;0.00;0.00;;;8.20;99.90;;;;;;5089985;28;20062;-86
2023/01/02 09:30:49;;;;;;;0.35;0.30;;;8.20;99.90;;;;;;5091511;28;20043;-86
2023/01/02 09:33:15;;;;;;;0.10;0.08;;;8.20;99.90;;;;;;5091518;28;20119;-86
2023/01/02 09:35:40;;;;;;;0.00;0.00;;;8.20;99.90;;;;;;5091751;28;20105;-86
2023/01/02 09:38:06;;;;;;;0.00;0.00;;;8.30;99.90;;;;;;5091233;28;20046;-86
2023/01/02 09:40:34;;;;;;;0.15;0.15;;;8.30;99.90;;;;;;5089748;28;20101;-86
2023/01/02 09:43:00;;;;;;;0.00;0.00;;;8.30;99.90;;;;;;5091218;28;20111;-86
2023/01/02 09:45:27;;;;;;;0.40;0.40;;;8.40;99.90;;;;;;5091173;28;20044;-86
2023/01/02 09:47:55;;;;;;;0.00;0.00;;;8.40;99.90;;;;;;5091010;28;20052;-86
2023/01/02 09:50:27;;;;;;;0.30;0.17;;;8.40;99.90;;;;;;5091210;28;20047;-86
2023/01/02 09:52:56;;;;;;;0.05;0.03;;;9.50;99.90;;;;;;5091441;28;20050;-86
2023/01/02 09:55:37;;;;;;;0.30;0.30;;;8.50;99.90;;;;;;5090522;28;20051;-86
2023/01/02 09:58:16;;;;;;;0.20;0.20;;;8.40;99.90;;;;;;5090231;28;20403;-86
2023/01/02 10:00:45;;;;;;;0.00;0.00;;;8.40;99.90;;;;;;5090391;28;20662;-86
2023/01/02 10:03:34;;;;;;;0.00;0.00;;;8.40;99.90;;;;;;5089948;28;20098;-85
2023/01/02 10:06:22;;;;;;;0.00;0.00;;;8.80;99.90;;;;;;5092210;28;20055;-86
2023/01/02 10:08:56;;;;;;;0.00;0.00;;;8.40;99.90;;;;;;5090718;28;20052;-86
2023/01/02 10:11:38;;;;;;;0.00;0.00;;;8.40;99.90;;;;;;5091400;28;20056;-85
2023/01/02 10:14:24;;;;;;;0.00;0.00;;;8.50;99.90;;;;;;5092071;28;20483;-86
2023/01/02 10:16:55;;;;;;;0.10;0.10;;;8.50;99.90;;;;;;5091159;28;20086;-86
2023/01/02 10:19:42;;;;;;;0.20;0.20;;;8.60;99.90;;;;;;5091678;28;20054;-85
2023/01/02 10:22:14;;;;;;;0.85;0.55;;;8.60;99.90;;;;;;5090997;28;20088;-86
2023/01/02 10:25:01;;;;;;;0.00;0.00;;;8.70;99.90;;;;;;5089499;28;20063;-86
2023/01/02 10:27:51;;;;;;;0.00;0.00;;;8.70;99.90;;;;;;5090566;28;20522;-86
2023/01/02 10:30:26;;;;;;;0.00;0.00;;;8.70;99.90;;;;;;5069990;28;20450;-86
2023/01/02 10:33:01;;;;;;;0.25;0.25;;;8.70;99.90;;;;;;5071395;28;20048;-86
2023/01/02 10:35:36;;;;;;;0.00;0.00;;;8.60;99.90;;;;;;5086240;28;20207;-86
2023/01/02 10:38:02;;;;;;;0.13;0.13;;;8.60;99.90;;;;;;5070397;28;20044;-86
2023/01/02 10:40:29;;;;;;;0.00;0.00;;;8.50;99.90;;;;;;5070934;28;20093;-86
2023/01/02 10:42:56;;;;;;;0.20;0.20;;;8.50;99.90;;;;;;5070752;28;20044;-86
2023/01/02 10:45:22;;;;;;;1.10;0.75;;;8.50;99.90;;;;;;5070076;28;20109;-86
2023/01/02 10:47:48;;;;;;;0.10;0.10;;;8.50;99.90;;;;;;5074773;28;20048;-86
2023/01/02 10:50:20;;;;;;;0.00;0.00;;;8.40;99.90;;;;;;5089004;28;20052;-86
2023/01/02 10:52:53;;;;;;;0.25;0.25;;;8.40;99.90;;;;;;5088673;28;20051;-86
2023/01/02 10:55:32;;;;;;;0.00;0.00;;;8.40;99.90;;;;;;5088330;28;20052;-86
2023/01/02 10:58:14;;;;;;;0.00;0.00;;;8.50;99.90;;;;;;5096989;28;20071;-85
2023/01/02 11:00:39;;;;;;;0.00;0.00;;;8.50;99.90;;;;;;5090860;28;20040;-87
2023/01/02 11:03:15;;;;;;;0.70;0.20;;;8.50;99.90;;;;;;5090099;28;20055;-87
2023/01/02 11:05:53;;;;;;;0.00;0.00;;;8.60;99.90;;;;;;5090442;28;20097;-87
2023/01/02 11:08:33;;;;;;;0.20;0.10;;;8.60;99.90;;;;;;5089055;28;20057;-87
2023/01/02 11:11:00;;;;;;;0.15;0.15;;;8.60;99.90;;;;;;5090594;28;20040;-87
2023/01/02 11:13:42;;;;;;;0.00;0.00;;;8.60;99.90;;;;;;5090362;28;20071;-86
2023/01/02 11:16:11;;;;;;;0.20;0.20;;;8.60;99.90;;;;;;5090234;28;20044;-86
2023/01/02 11:18:36;;;;;;;0.40;0.40;;;8.60;99.90;;;;;;5088905;28;20145;-87
2023/01/02 11:21:05;;;;;;;0.00;0.00;;;8.70;99.90;;;;;;5092136;28;20106;-86
2023/01/02 11:23:42;;;;;;;0.10;0.10;;;8.70;99.90;;;;;;5093683;28;20042;-87
2023/01/02 11:26:23;;;;;;;0.08;0.08;;;8.70;99.90;;;;;;5093656;28;20123;-86
2023/01/02 11:28:50;;;;;;;0.32;0.32;;;8.80;99.90;;;;;;5093658;28;20421;-86
2023/01/02 11:31:16;;;;;;;0.20;0.20;;;8.80;99.90;;;;;;5092379;28;20048;-87
2023/01/02 11:33:43;;;;;;;0.05;0.05;;;8.90;99.90;;;;;;5093755;28;20130;-87
2023/01/02 11:36:12;;;;;;;0.00;0.00;;;8.90;99.90;;;;;;5093718;28;20036;-86
2023/01/02 11:38:48;;;;;;;0.00;0.00;;;8.90;99.90;;;;;;5093100;28;20074;-86
2023/01/02 11:41:23;;;;;;;0.25;0.25;;;8.80;99.90;;;;;;5092329;28;20640;-86
2023/01/02 11:43:58;;;;;;;2.33;0.67;;;8.70;99.90;;;;;;5091811;28;20105;-87
2023/01/02 11:46:31;;;;;;;0.00;0.00;;;8.60;99.90;;;;;;5081509;28;20459;-86
2023/01/02 11:49:11;;;;;;;0.40;0.40;;;8.60;99.90;;;;;;5075347;28;20059;-87
2023/01/02 11:51:39;;;;;;;0.00;0.00;;;8.60;99.90;;;;;;5093392;28;20043;-87
2023/01/02 11:54:13;;;;;;;3.35;1.10;;;8.60;99.90;;;;;;5093239;28;20087;-87
2023/01/02 11:56:41;;;;;;;2.35;1.00;;;8.50;99.90;;;;;;5093352;28;20048;-86
2023/01/02 11:59:35;;;;;;;0.00;0.00;;;8.50;99.90;;;;;;5091428;28;20055;-85
2023/01/02 12:02:00;;;;;;;6.70;1.60;;;8.50;99.90;;;;;;5091916;28;20047;-86
2023/01/02 12:04:26;;;;;;;0.55;0.55;;;8.50;99.90;;;;;;5092297;28;20052;-86
2023/01/02 12:07:27;;;;;;;0.00;0.00;;;8.60;99.90;;;;;;5091156;28;20091;-85
2023/01/02 12:10:31;;;;;;;0.00;0.00;;;9.80;99.90;;;;;;5092890;28;20184;-86
2023/01/02 12:13:08;;;;;;;0.30;0.20;;;8.70;99.90;;;;;;5094701;28;20064;-85
2023/01/02 12:16:12;;;;;;;0.00;0.00;;;8.80;99.90;;;;;;5097471;28;20048;-86
2023/01/02 12:18:48;;;;;;;0.00;0.00;;;8.90;99.90;;;;;;5022627;28;20128;-85
2023/01/02 12:21:21;;;;;;;;;;;9.10;99.90;;;;;;5089107;28;20364;-85
2023/01/02 12:23:50;;;;;;;0.00;0.00;;;9.10;99.90;;;;;;5095694;28;19931;-86
2023/01/02 12:26:50;;;;;;;0.90;0.88;;;9.10;99.90;;;;;;5098652;28;20048;-85
2023/01/02 12:29:50;;;;;;;0.00;0.00;;;9.00;99.90;;;;;;5075202;28;20052;-86
2023/01/02 12:32:40;;;;;;;0.20;0.20;;;8.90;99.90;;;;;;5100029;28;20055;-87
2023/01/02 12:35:18;;;;;;;0.00;0.00;;;8.80;99.90;;;;;;5097871;28;20051;-85
2023/01/02 12:37:57;;;;;;;0.00;0.00;;;8.80;99.90;;;;;;5096589;28;20044;-86
2023/01/02 12:40:59;;;;;;;0.30;0.30;;;8.70;99.90;;;;;;5096120;28;20136;-85
2023/01/02 12:43:24;;;;;;;1.45;0.95;;;8.70;99.90;;;;;;5096702;28;20123;-85
2023/01/02 12:45:57;;;;;;;0.00;0.00;;;8.70;99.90;;;;;;5096981;28;20503;-85
2023/01/02 12:49:05;;;;;;;0.03;0.03;;;8.80;99.90;;;;;;5089953;28;20060;-86
2023/01/02 12:51:54;;;;;;;0.13;0.13;;;8.90;99.90;;;;;;5076481;28;20095;-87
2023/01/02 12:54:40;;;;;;;0.10;0.10;;;9.00;99.90;;;;;;5082144;28;20427;-85
2023/01/02 12:57:30;;;;;;;0.00;0.00;;;9.00;99.90;;;;;;5096576;28;20052;-86
2023/01/02 13:00:14;;;;;;;0.00;0.00;;;9.00;99.90;;;;;;5094695;28;20048;-85
2023/01/02 13:02:57;;;;;;;0.30;0.28;;;8.90;99.90;;;;;;5096444;28;20040;-85
2023/01/02 13:05:45;;;;;;;0.00;0.00;;;8.80;99.90;;;;;;5095585;28;20058;-85
2023/01/02 13:08:27;;;;;;;0.00;0.00;;;9.20;99.90;;;;;;5111948;28;20463;-87
2023/01/02 13:10:55;;;;;;;0.47;0.47;;;8.70;99.90;;;;;;5112153;28;20048;-85
2023/01/02 13:13:26;;;;;;;0.30;0.30;;;9.60;99.90;;;;;;5094859;28;20044;-87
2023/01/02 13:15:56;;;;;;;0.00;0.00;;;8.70;99.90;;;;;;5096192;28;20487;-87